sensor_id;sensor_type;location;lat;lon;timestamp;P1;durP1;ratioP1;P2;durP2;ratioP2
5722;SDS011;2886;49.722;8.612;2023-05-20T00:01:08;5.20;;;2.73;;
5722;SDS011;2886;49.722;8.612;2023-05-20T00:03:33;3.50;;;2.77;;
5722;SDS011;2886;49.722;8.612;2023-05-20T00:05:59;6.90;;;2.43;;
5722;SDS011;2886;49.722;8.612;2023-05-20T00:08:27;2.90;;;2.13;;
5722;SDS011;2886;49.722;8.612;2023-05-20T00:10:52;2.70;;;2.27;;
5722;SDS011;2886;49.722;8.612;2023-05-20T00:13:18;2.60;;;2.10;;
5722;SDS011;2886;49.722;8.612;2023-05-20T00:15:44;2.97;;;2.20;;
5722;SDS011;2886;49.722;8.612;2023-05-20T00:18:09;2.77;;;2.23;;
5722;SDS011;2886;49.722;8.612;2023-05-20T00:20:35;4.20;;;2.60;;
5722;SDS011;2886;49.722;8.612;2023-05-20T00:23:00;4.97;;;2.57;;
5722;SDS011;2886;49.722;8.612;2023-05-20T00:25:26;4.37;;;2.40;;
5722;SDS011;2886;49.722;8.612;2023-05-20T00:27:52;3.03;;;2.27;;
5722;SDS011;2886;49.722;8.612;2023-05-20T00:30:17;2.90;;;2.47;;
5722;SDS011;2886;49.722;8.612;2023-05-20T00:32:43;3.87;;;2.23;;
5722;SDS011;2886;49.722;8.612;2023-05-20T00:35:09;2.50;;;2.27;;
5722;SDS011;2886;49.722;8.612;2023-05-20T00:37:35;3.43;;;2.40;;
5722;SDS011;2886;49.722;8.612;2023-05-20T00:40:01;2.90;;;2.10;;
5722;SDS011;2886;49.722;8.612;2023-05-20T00:42:27;3.00;;;2.13;;
5722;SDS011;2886;49.722;8.612;2023-05-20T00:44:53;8.20;;;2.37;;
5722;SDS011;2886;49.722;8.612;2023-05-20T00:47:20;3.53;;;2.53;;
5722;SDS011;2886;49.722;8.612;2023-05-20T00:49:57;5.83;;;2.90;;
5722;SDS011;2886;49.722;8.612;2023-05-20T00:52:25;5.43;;;2.40;;
5722;SDS011;2886;49.722;8.612;2023-05-20T00:54:54;4.83;;;2.70;;
5722;SDS011;2886;49.722;8.612;2023-05-20T00:57:20;3.10;;;2.33;;
5722;SDS011;2886;49.722;8.612;2023-05-20T00:59:46;4.00;;;2.77;;
5722;SDS011;2886;49.722;8.612;2023-05-20T01:02:11;3.73;;;2.53;;
5722;SDS011;2886;49.722;8.612;2023-05-20T01:04:38;6.17;;;2.23;;
5722;SDS011;2886;49.722;8.612;2023-05-20T01:07:04;3.90;;;2.90;;
5722;SDS011;2886;49.722;8.612;2023-05-20T01:09:30;3.43;;;2.13;;
5722;SDS011;2886;49.722;8.612;2023-05-20T01:14:34;5.70;;;2.80;;
5722;SDS011;2886;49.722;8.612;2023-05-20T01:17:03;3.30;;;2.50;;
5722;SDS011;2886;49.722;8.612;2023-05-20T01:19:35;12.23;;;2.50;;
5722;SDS011;2886;49.722;8.612;2023-05-20T01:22:05;6.83;;;2.30;;
5722;SDS011;2886;49.722;8.612;2023-05-20T01:24:32;4.60;;;2.30;;
5722;SDS011;2886;49.722;8.612;2023-05-20T01:26:58;6.63;;;2.50;;
5722;SDS011;2886;49.722;8.612;2023-05-20T01:29:24;2.63;;;2.43;;
5722;SDS011;2886;49.722;8.612;2023-05-20T01:31:50;11.83;;;3.10;;
5722;SDS011;2886;49.722;8.612;2023-05-20T01:34:18;3.97;;;2.70;;
5722;SDS011;2886;49.722;8.612;2023-05-20T01:36:44;4.63;;;2.73;;
5722;SDS011;2886;49.722;8.612;2023-05-20T01:39:11;3.07;;;2.63;;
5722;SDS011;2886;49.722;8.612;2023-05-20T01:41:37;4.60;;;3.17;;
5722;SDS011;2886;49.722;8.612;2023-05-20T01:44:05;3.03;;;2.60;;
5722;SDS011;2886;49.722;8.612;2023-05-20T01:46:31;2.70;;;2.20;;
5722;SDS011;2886;49.722;8.612;2023-05-20T01:48:58;7.73;;;2.53;;
5722;SDS011;2886;49.722;8.612;2023-05-20T01:51:24;7.47;;;3.00;;
5722;SDS011;2886;49.722;8.612;2023-05-20T01:53:49;5.47;;;2.60;;
5722;SDS011;2886;49.722;8.612;2023-05-20T01:56:16;2.90;;;2.43;;
5722;SDS011;2886;49.722;8.612;2023-05-20T01:58:41;9.97;;;2.60;;
5722;SDS011;2886;49.722;8.612;2023-05-20T02:01:07;3.20;;;2.40;;
5722;SDS011;2886;49.722;8.612;2023-05-20T02:03:33;2.50;;;2.30;;
5722;SDS011;2886;49.722;8.612;2023-05-20T02:05:58;5.67;;;3.10;;
5722;SDS011;2886;49.722;8.612;2023-05-20T02:08:24;3.20;;;2.40;;
5722;SDS011;2886;49.722;8.612;2023-05-20T02:10:50;7.23;;;2.93;;
5722;SDS011;2886;49.722;8.612;2023-05-20T02:13:15;4.23;;;2.70;;
5722;SDS011;2886;49.722;8.612;2023-05-20T02:15:41;6.30;;;2.87;;
5722;SDS011;2886;49.722;8.612;2023-05-20T02:18:07;2.90;;;2.33;;
5722;SDS011;2886;49.722;8.612;2023-05-20T02:20:36;4.63;;;3.10;;
5722;SDS011;2886;49.722;8.612;2023-05-20T02:23:02;3.30;;;2.60;;
5722;SDS011;2886;49.722;8.612;2023-05-20T02:25:30;2.87;;;2.57;;
5722;SDS011;2886;49.722;8.612;2023-05-20T02:27:56;6.00;;;3.10;;
5722;SDS011;2886;49.722;8.612;2023-05-20T02:30:21;4.60;;;2.80;;
5722;SDS011;2886;49.722;8.612;2023-05-20T02:32:47;4.60;;;2.93;;
5722;SDS011;2886;49.722;8.612;2023-05-20T02:35:13;10.73;;;2.70;;
5722;SDS011;2886;49.722;8.612;2023-05-20T02:37:40;4.07;;;2.93;;
5722;SDS011;2886;49.722;8.612;2023-05-20T02:40:08;4.33;;;2.50;;
5722;SDS011;2886;49.722;8.612;2023-05-20T02:42:34;3.37;;;2.60;;
5722;SDS011;2886;49.722;8.612;2023-05-20T02:45:00;4.13;;;2.80;;
5722;SDS011;2886;49.722;8.612;2023-05-20T02:47:26;3.50;;;2.73;;
5722;SDS011;2886;49.722;8.612;2023-05-20T02:49:51;3.00;;;2.53;;
5722;SDS011;2886;49.722;8.612;2023-05-20T02:52:17;3.90;;;2.77;;
5722;SDS011;2886;49.722;8.612;2023-05-20T02:54:42;2.87;;;2.63;;
5722;SDS011;2886;49.722;8.612;2023-05-20T02:57:08;6.00;;;2.43;;
5722;SDS011;2886;49.722;8.612;2023-05-20T02:59:34;3.20;;;2.60;;
5722;SDS011;2886;49.722;8.612;2023-05-20T03:01:59;4.23;;;2.80;;
5722;SDS011;2886;49.722;8.612;2023-05-20T03:04:25;3.87;;;2.90;;
5722;SDS011;2886;49.722;8.612;2023-05-20T03:06:52;3.93;;;2.93;;
5722;SDS011;2886;49.722;8.612;2023-05-20T03:09:17;3.67;;;3.00;;
5722;SDS011;2886;49.722;8.612;2023-05-20T03:11:43;2.90;;;2.60;;
5722;SDS011;2886;49.722;8.612;2023-05-20T03:14:10;3.93;;;3.00;;
5722;SDS011;2886;49.722;8.612;2023-05-20T03:16:35;3.73;;;2.50;;
5722;SDS011;2886;49.722;8.612;2023-05-20T03:19:02;7.10;;;2.73;;
5722;SDS011;2886;49.722;8.612;2023-05-20T03:21:27;4.63;;;3.17;;
5722;SDS011;2886;49.722;8.612;2023-05-20T03:23:53;9.33;;;2.87;;
5722;SDS011;2886;49.722;8.612;2023-05-20T03:26:18;6.37;;;3.40;;
5722;SDS011;2886;49.722;8.612;2023-05-20T03:28:45;3.67;;;2.83;;
5722;SDS011;2886;49.722;8.612;2023-05-20T03:31:11;5.23;;;2.90;;
5722;SDS011;2886;49.722;8.612;2023-05-20T03:33:36;6.30;;;2.93;;
5722;SDS011;2886;49.722;8.612;2023-05-20T03:36:02;7.90;;;3.43;;
5722;SDS011;2886;49.722;8.612;2023-05-20T03:38:29;3.10;;;2.80;;
5722;SDS011;2886;49.722;8.612;2023-05-20T03:40:54;2.40;;;2.20;;
5722;SDS011;2886;49.722;8.612;2023-05-20T03:43:20;5.60;;;2.83;;
5722;SDS011;2886;49.722;8.612;2023-05-20T03:45:46;10.27;;;3.20;;
5722;SDS011;2886;49.722;8.612;2023-05-20T03:48:11;3.50;;;3.03;;
5722;SDS011;2886;49.722;8.612;2023-05-20T03:50:37;4.50;;;3.00;;
5722;SDS011;2886;49.722;8.612;2023-05-20T03:53:03;5.20;;;2.90;;
5722;SDS011;2886;49.722;8.612;2023-05-20T03:55:28;4.40;;;3.30;;
5722;SDS011;2886;49.722;8.612;2023-05-20T03:57:54;7.03;;;3.10;;
5722;SDS011;2886;49.722;8.612;2023-05-20T04:00:20;3.60;;;3.00;;
5722;SDS011;2886;49.722;8.612;2023-05-20T04:02:46;5.97;;;2.73;;
5722;SDS011;2886;49.722;8.612;2023-05-20T04:05:12;8.00;;;3.33;;
5722;SDS011;2886;49.722;8.612;2023-05-20T04:07:38;3.10;;;2.77;;
5722;SDS011;2886;49.722;8.612;2023-05-20T04:10:03;3.40;;;2.77;;
5722;SDS011;2886;49.722;8.612;2023-05-20T04:12:30;4.90;;;3.40;;
5722;SDS011;2886;49.722;8.612;2023-05-20T04:14:59;3.33;;;2.57;;
5722;SDS011;2886;49.722;8.612;2023-05-20T04:17:26;3.47;;;3.10;;
5722;SDS011;2886;49.722;8.612;2023-05-20T04:19:54;3.87;;;2.90;;
5722;SDS011;2886;49.722;8.612;2023-05-20T04:22:20;6.97;;;3.33;;
5722;SDS011;2886;49.722;8.612;2023-05-20T04:24:47;4.43;;;3.70;;
5722;SDS011;2886;49.722;8.612;2023-05-20T04:27:12;9.33;;;3.97;;
5722;SDS011;2886;49.722;8.612;2023-05-20T04:29:38;3.43;;;2.97;;
5722;SDS011;2886;49.722;8.612;2023-05-20T04:32:06;6.00;;;3.57;;
5722;SDS011;2886;49.722;8.612;2023-05-20T04:34:34;4.43;;;3.50;;
5722;SDS011;2886;49.722;8.612;2023-05-20T04:37:01;6.43;;;3.20;;
5722;SDS011;2886;49.722;8.612;2023-05-20T04:39:27;4.43;;;3.27;;
5722;SDS011;2886;49.722;8.612;2023-05-20T04:41:52;5.03;;;3.00;;
5722;SDS011;2886;49.722;8.612;2023-05-20T04:44:19;4.53;;;2.97;;
5722;SDS011;2886;49.722;8.612;2023-05-20T04:46:45;5.40;;;3.77;;
5722;SDS011;2886;49.722;8.612;2023-05-20T04:49:10;8.57;;;3.43;;
5722;SDS011;2886;49.722;8.612;2023-05-20T04:51:36;3.93;;;3.20;;
5722;SDS011;2886;49.722;8.612;2023-05-20T04:54:02;4.60;;;3.27;;
5722;SDS011;2886;49.722;8.612;2023-05-20T04:56:27;4.80;;;3.30;;
5722;SDS011;2886;49.722;8.612;2023-05-20T04:58:53;5.30;;;3.43;;
5722;SDS011;2886;49.722;8.612;2023-05-20T05:01:20;4.17;;;2.87;;
5722;SDS011;2886;49.722;8.612;2023-05-20T05:03:45;6.20;;;3.30;;
5722;SDS011;2886;49.722;8.612;2023-05-20T05:06:11;3.70;;;3.40;;
5722;SDS011;2886;49.722;8.612;2023-05-20T05:08:37;4.20;;;3.10;;
5722;SDS011;2886;49.722;8.612;2023-05-20T05:11:04;4.37;;;3.00;;
5722;SDS011;2886;49.722;8.612;2023-05-20T05:13:30;4.83;;;3.10;;
5722;SDS011;2886;49.722;8.612;2023-05-20T05:15:59;6.33;;;3.27;;
5722;SDS011;2886;49.722;8.612;2023-05-20T05:18:26;4.57;;;2.87;;
5722;SDS011;2886;49.722;8.612;2023-05-20T05:20:58;3.80;;;3.33;;
5722;SDS011;2886;49.722;8.612;2023-05-20T05:23:25;5.23;;;2.87;;
5722;SDS011;2886;49.722;8.612;2023-05-20T05:25:51;4.40;;;3.20;;
5722;SDS011;2886;49.722;8.612;2023-05-20T05:28:17;4.97;;;3.50;;
5722;SDS011;2886;49.722;8.612;2023-05-20T05:30:42;4.10;;;3.10;;
5722;SDS011;2886;49.722;8.612;2023-05-20T05:33:08;7.20;;;3.93;;
5722;SDS011;2886;49.722;8.612;2023-05-20T05:35:34;3.83;;;3.03;;
5722;SDS011;2886;49.722;8.612;2023-05-20T05:37:59;3.73;;;3.10;;
5722;SDS011;2886;49.722;8.612;2023-05-20T05:40:25;10.30;;;3.57;;
5722;SDS011;2886;49.722;8.612;2023-05-20T05:42:51;8.87;;;3.00;;
5722;SDS011;2886;49.722;8.612;2023-05-20T05:45:17;3.70;;;3.20;;
5722;SDS011;2886;49.722;8.612;2023-05-20T05:47:42;10.77;;;3.67;;
5722;SDS011;2886;49.722;8.612;2023-05-20T05:50:08;3.80;;;3.40;;
5722;SDS011;2886;49.722;8.612;2023-05-20T05:52:34;4.30;;;3.50;;
5722;SDS011;2886;49.722;8.612;2023-05-20T05:55:00;4.47;;;3.37;;
5722;SDS011;2886;49.722;8.612;2023-05-20T05:57:26;10.93;;;3.87;;
5722;SDS011;2886;49.722;8.612;2023-05-20T05:59:52;6.40;;;3.07;;
5722;SDS011;2886;49.722;8.612;2023-05-20T06:02:17;7.23;;;3.43;;
5722;SDS011;2886;49.722;8.612;2023-05-20T06:04:43;7.40;;;3.90;;
5722;SDS011;2886;49.722;8.612;2023-05-20T06:07:09;3.33;;;3.03;;
5722;SDS011;2886;49.722;8.612;2023-05-20T06:09:34;4.17;;;3.03;;
5722;SDS011;2886;49.722;8.612;2023-05-20T06:12:00;5.27;;;3.00;;
5722;SDS011;2886;49.722;8.612;2023-05-20T06:14:26;5.93;;;3.20;;
5722;SDS011;2886;49.722;8.612;2023-05-20T06:16:52;4.47;;;3.23;;
5722;SDS011;2886;49.722;8.612;2023-05-20T06:19:17;3.97;;;3.07;;
5722;SDS011;2886;49.722;8.612;2023-05-20T06:21:43;9.20;;;3.80;;
5722;SDS011;2886;49.722;8.612;2023-05-20T06:24:08;3.60;;;3.23;;
5722;SDS011;2886;49.722;8.612;2023-05-20T06:26:34;6.80;;;3.50;;
5722;SDS011;2886;49.722;8.612;2023-05-20T06:29:00;16.40;;;3.90;;
5722;SDS011;2886;49.722;8.612;2023-05-20T06:31:26;3.87;;;3.17;;
5722;SDS011;2886;49.722;8.612;2023-05-20T06:33:51;7.20;;;3.37;;
5722;SDS011;2886;49.722;8.612;2023-05-20T06:36:17;4.97;;;3.43;;
5722;SDS011;2886;49.722;8.612;2023-05-20T06:38:42;3.17;;;2.87;;
5722;SDS011;2886;49.722;8.612;2023-05-20T06:41:08;5.80;;;4.30;;
5722;SDS011;2886;49.722;8.612;2023-05-20T06:43:34;4.60;;;3.53;;
5722;SDS011;2886;49.722;8.612;2023-05-20T06:45:59;7.93;;;4.10;;
5722;SDS011;2886;49.722;8.612;2023-05-20T06:48:25;4.40;;;3.20;;
5722;SDS011;2886;49.722;8.612;2023-05-20T06:50:51;4.80;;;3.30;;
5722;SDS011;2886;49.722;8.612;2023-05-20T06:53:16;4.90;;;3.47;;
5722;SDS011;2886;49.722;8.612;2023-05-20T06:55:42;4.57;;;3.60;;
5722;SDS011;2886;49.722;8.612;2023-05-20T06:58:07;6.27;;;3.67;;
5722;SDS011;2886;49.722;8.612;2023-05-20T07:00:33;3.80;;;3.13;;
5722;SDS011;2886;49.722;8.612;2023-05-20T07:02:58;4.97;;;3.63;;
5722;SDS011;2886;49.722;8.612;2023-05-20T07:05:24;5.33;;;3.60;;
5722;SDS011;2886;49.722;8.612;2023-05-20T07:07:51;4.30;;;3.90;;
5722;SDS011;2886;49.722;8.612;2023-05-20T07:10:17;6.10;;;3.70;;
5722;SDS011;2886;49.722;8.612;2023-05-20T07:12:42;6.37;;;3.87;;
5722;SDS011;2886;49.722;8.612;2023-05-20T07:15:08;5.20;;;3.87;;
5722;SDS011;2886;49.722;8.612;2023-05-20T07:17:34;4.23;;;3.63;;
5722;SDS011;2886;49.722;8.612;2023-05-20T07:20:00;7.27;;;3.70;;
5722;SDS011;2886;49.722;8.612;2023-05-20T07:22:26;6.30;;;3.90;;
5722;SDS011;2886;49.722;8.612;2023-05-20T07:24:52;7.00;;;3.50;;
5722;SDS011;2886;49.722;8.612;2023-05-20T07:27:17;5.10;;;3.53;;
5722;SDS011;2886;49.722;8.612;2023-05-20T07:29:43;4.60;;;3.70;;
5722;SDS011;2886;49.722;8.612;2023-05-20T07:32:08;5.70;;;4.20;;
5722;SDS011;2886;49.722;8.612;2023-05-20T07:34:34;6.07;;;4.67;;
5722;SDS011;2886;49.722;8.612;2023-05-20T07:37:00;5.60;;;3.97;;
5722;SDS011;2886;49.722;8.612;2023-05-20T07:39:26;5.50;;;4.07;;
5722;SDS011;2886;49.722;8.612;2023-05-20T07:41:51;6.13;;;3.80;;
5722;SDS011;2886;49.722;8.612;2023-05-20T07:44:17;7.20;;;3.40;;
5722;SDS011;2886;49.722;8.612;2023-05-20T07:46:45;4.10;;;3.70;;
5722;SDS011;2886;49.722;8.612;2023-05-20T07:49:11;10.63;;;3.70;;
5722;SDS011;2886;49.722;8.612;2023-05-20T07:51:36;9.03;;;3.97;;
5722;SDS011;2886;49.722;8.612;2023-05-20T07:54:02;8.70;;;3.80;;
5722;SDS011;2886;49.722;8.612;2023-05-20T07:56:28;5.40;;;3.87;;
5722;SDS011;2886;49.722;8.612;2023-05-20T07:58:56;4.80;;;3.77;;
5722;SDS011;2886;49.722;8.612;2023-05-20T08:01:24;12.17;;;5.30;;
5722;SDS011;2886;49.722;8.612;2023-05-20T08:03:50;18.30;;;4.03;;
5722;SDS011;2886;49.722;8.612;2023-05-20T08:06:15;5.90;;;4.20;;
5722;SDS011;2886;49.722;8.612;2023-05-20T08:08:41;5.43;;;4.07;;
5722;SDS011;2886;49.722;8.612;2023-05-20T08:11:07;4.73;;;3.90;;
5722;SDS011;2886;49.722;8.612;2023-05-20T08:13:34;7.83;;;4.53;;
5722;SDS011;2886;49.722;8.612;2023-05-20T08:16:00;4.57;;;4.00;;
5722;SDS011;2886;49.722;8.612;2023-05-20T08:18:28;6.87;;;4.07;;
5722;SDS011;2886;49.722;8.612;2023-05-20T08:20:53;4.53;;;4.10;;
5722;SDS011;2886;49.722;8.612;2023-05-20T08:23:19;10.10;;;4.50;;
5722;SDS011;2886;49.722;8.612;2023-05-20T08:25:45;8.50;;;4.20;;
5722;SDS011;2886;49.722;8.612;2023-05-20T08:28:12;5.63;;;4.43;;
5722;SDS011;2886;49.722;8.612;2023-05-20T08:30:38;4.93;;;4.30;;
5722;SDS011;2886;49.722;8.612;2023-05-20T08:33:03;8.50;;;4.50;;
5722;SDS011;2886;49.722;8.612;2023-05-20T08:35:29;6.20;;;4.40;;
5722;SDS011;2886;49.722;8.612;2023-05-20T08:37:55;5.13;;;4.60;;
5722;SDS011;2886;49.722;8.612;2023-05-20T08:40:21;9.43;;;4.87;;
5722;SDS011;2886;49.722;8.612;2023-05-20T08:42:47;5.60;;;4.23;;
5722;SDS011;2886;49.722;8.612;2023-05-20T08:45:16;10.10;;;4.43;;
5722;SDS011;2886;49.722;8.612;2023-05-20T08:47:42;9.03;;;4.93;;
5722;SDS011;2886;49.722;8.612;2023-05-20T08:50:09;4.77;;;3.97;;
5722;SDS011;2886;49.722;8.612;2023-05-20T08:52:37;5.23;;;4.73;;
5722;SDS011;2886;49.722;8.612;2023-05-20T08:55:29;6.97;;;4.47;;
5722;SDS011;2886;49.722;8.612;2023-05-20T08:58:02;5.40;;;4.20;;
5722;SDS011;2886;49.722;8.612;2023-05-20T09:00:29;31.53;;;5.00;;
5722;SDS011;2886;49.722;8.612;2023-05-20T09:02:56;5.70;;;4.60;;
5722;SDS011;2886;49.722;8.612;2023-05-20T09:05:22;5.27;;;4.60;;
5722;SDS011;2886;49.722;8.612;2023-05-20T09:07:48;6.23;;;5.03;;
5722;SDS011;2886;49.722;8.612;2023-05-20T09:10:14;6.80;;;4.77;;
5722;SDS011;2886;49.722;8.612;2023-05-20T09:12:40;5.93;;;5.00;;
5722;SDS011;2886;49.722;8.612;2023-05-20T09:15:06;5.10;;;4.30;;
5722;SDS011;2886;49.722;8.612;2023-05-20T09:17:36;5.63;;;4.50;;
5722;SDS011;2886;49.722;8.612;2023-05-20T09:20:08;6.43;;;4.97;;
5722;SDS011;2886;49.722;8.612;2023-05-20T09:22:35;9.77;;;4.83;;
5722;SDS011;2886;49.722;8.612;2023-05-20T09:25:02;5.70;;;4.60;;
5722;SDS011;2886;49.722;8.612;2023-05-20T09:27:28;6.53;;;5.00;;
5722;SDS011;2886;49.722;8.612;2023-05-20T09:29:53;6.17;;;4.93;;
5722;SDS011;2886;49.722;8.612;2023-05-20T09:32:20;8.13;;;5.17;;
5722;SDS011;2886;49.722;8.612;2023-05-20T09:34:52;8.73;;;5.20;;
5722;SDS011;2886;49.722;8.612;2023-05-20T09:37:17;6.50;;;5.07;;
5722;SDS011;2886;49.722;8.612;2023-05-20T09:39:55;7.07;;;4.67;;
5722;SDS011;2886;49.722;8.612;2023-05-20T09:42:25;6.93;;;4.70;;
5722;SDS011;2886;49.722;8.612;2023-05-20T09:44:56;8.07;;;4.73;;
5722;SDS011;2886;49.722;8.612;2023-05-20T09:47:24;5.97;;;4.97;;
5722;SDS011;2886;49.722;8.612;2023-05-20T09:49:51;7.13;;;4.67;;
5722;SDS011;2886;49.722;8.612;2023-05-20T09:52:17;6.73;;;4.80;;
5722;SDS011;2886;49.722;8.612;2023-05-20T09:54:43;5.90;;;4.80;;
5722;SDS011;2886;49.722;8.612;2023-05-20T09:57:11;7.00;;;5.00;;
5722;SDS011;2886;49.722;8.612;2023-05-20T09:59:37;8.07;;;5.17;;
5722;SDS011;2886;49.722;8.612;2023-05-20T10:02:04;6.67;;;5.17;;
5722;SDS011;2886;49.722;8.612;2023-05-20T10:04:31;7.80;;;4.70;;
5722;SDS011;2886;49.722;8.612;2023-05-20T10:09:54;6.07;;;4.83;;
5722;SDS011;2886;49.722;8.612;2023-05-20T10:15:15;9.20;;;4.93;;
5722;SDS011;2886;49.722;8.612;2023-05-20T10:18:05;6.30;;;4.90;;
5722;SDS011;2886;49.722;8.612;2023-05-20T10:20:46;11.63;;;5.73;;
5722;SDS011;2886;49.722;8.612;2023-05-20T10:23:22;8.87;;;6.03;;
5722;SDS011;2886;49.722;8.612;2023-05-20T10:25:49;5.47;;;4.73;;
5722;SDS011;2886;49.722;8.612;2023-05-20T10:28:23;5.40;;;4.43;;
5722;SDS011;2886;49.722;8.612;2023-05-20T10:30:57;9.73;;;5.00;;
5722;SDS011;2886;49.722;8.612;2023-05-20T10:33:24;6.27;;;4.60;;
5722;SDS011;2886;49.722;8.612;2023-05-20T10:35:52;5.30;;;4.70;;
5722;SDS011;2886;49.722;8.612;2023-05-20T10:38:18;7.33;;;5.30;;
5722;SDS011;2886;49.722;8.612;2023-05-20T10:40:45;9.23;;;5.37;;
5722;SDS011;2886;49.722;8.612;2023-05-20T10:43:12;7.00;;;5.30;;
5722;SDS011;2886;49.722;8.612;2023-05-20T10:45:49;4.83;;;4.27;;
5722;SDS011;2886;49.722;8.612;2023-05-20T10:48:19;5.10;;;4.60;;
5722;SDS011;2886;49.722;8.612;2023-05-20T10:50:47;9.73;;;5.47;;
5722;SDS011;2886;49.722;8.612;2023-05-20T10:53:14;6.80;;;5.13;;
5722;SDS011;2886;49.722;8.612;2023-05-20T10:55:40;6.40;;;4.90;;
5722;SDS011;2886;49.722;8.612;2023-05-20T10:58:13;6.97;;;5.10;;
5722;SDS011;2886;49.722;8.612;2023-05-20T11:00:39;7.60;;;5.17;;
5722;SDS011;2886;49.722;8.612;2023-05-20T11:03:05;9.80;;;4.90;;
5722;SDS011;2886;49.722;8.612;2023-05-20T11:05:31;7.40;;;4.33;;
5722;SDS011;2886;49.722;8.612;2023-05-20T11:08:04;6.13;;;4.80;;
5722;SDS011;2886;49.722;8.612;2023-05-20T11:10:32;5.50;;;4.90;;
5722;SDS011;2886;49.722;8.612;2023-05-20T11:12:58;7.50;;;5.50;;
5722;SDS011;2886;49.722;8.612;2023-05-20T11:15:26;5.90;;;4.03;;
5722;SDS011;2886;49.722;8.612;2023-05-20T11:17:56;6.83;;;5.03;;
5722;SDS011;2886;49.722;8.612;2023-05-20T11:20:25;6.30;;;5.00;;
5722;SDS011;2886;49.722;8.612;2023-05-20T11:22:51;7.77;;;4.97;;
5722;SDS011;2886;49.722;8.612;2023-05-20T11:25:18;6.30;;;4.57;;
5722;SDS011;2886;49.722;8.612;2023-05-20T11:27:45;6.00;;;4.80;;
5722;SDS011;2886;49.722;8.612;2023-05-20T11:30:14;6.03;;;5.00;;
5722;SDS011;2886;49.722;8.612;2023-05-20T11:32:55;7.33;;;5.00;;
5722;SDS011;2886;49.722;8.612;2023-05-20T11:35:28;5.57;;;4.90;;
5722;SDS011;2886;49.722;8.612;2023-05-20T11:38:02;7.10;;;5.30;;
5722;SDS011;2886;49.722;8.612;2023-05-20T11:40:30;6.17;;;4.80;;
5722;SDS011;2886;49.722;8.612;2023-05-20T11:42:57;8.30;;;5.47;;
5722;SDS011;2886;49.722;8.612;2023-05-20T11:45:24;5.83;;;4.43;;
5722;SDS011;2886;49.722;8.612;2023-05-20T11:47:59;5.80;;;4.90;;
5722;SDS011;2886;49.722;8.612;2023-05-20T11:50:28;6.33;;;4.70;;
5722;SDS011;2886;49.722;8.612;2023-05-20T11:53:01;7.90;;;5.33;;
5722;SDS011;2886;49.722;8.612;2023-05-20T11:55:27;8.67;;;5.03;;
5722;SDS011;2886;49.722;8.612;2023-05-20T11:57:53;5.87;;;5.03;;
5722;SDS011;2886;49.722;8.612;2023-05-20T12:00:21;6.93;;;5.20;;
5722;SDS011;2886;49.722;8.612;2023-05-20T12:02:47;8.13;;;5.60;;
5722;SDS011;2886;49.722;8.612;2023-05-20T12:05:13;7.23;;;5.50;;
5722;SDS011;2886;49.722;8.612;2023-05-20T12:07:39;8.83;;;5.57;;
5722;SDS011;2886;49.722;8.612;2023-05-20T12:10:05;7.37;;;5.77;;
5722;SDS011;2886;49.722;8.612;2023-05-20T12:12:31;6.10;;;4.67;;
5722;SDS011;2886;49.722;8.612;2023-05-20T12:14:57;7.53;;;5.00;;
5722;SDS011;2886;49.722;8.612;2023-05-20T12:17:22;6.80;;;4.93;;
5722;SDS011;2886;49.722;8.612;2023-05-20T12:19:48;5.53;;;4.93;;
5722;SDS011;2886;49.722;8.612;2023-05-20T12:22:13;10.10;;;5.03;;
5722;SDS011;2886;49.722;8.612;2023-05-20T12:24:39;7.07;;;5.10;;
5722;SDS011;2886;49.722;8.612;2023-05-20T12:27:05;6.60;;;5.50;;
5722;SDS011;2886;49.722;8.612;2023-05-20T12:29:31;10.40;;;5.13;;
5722;SDS011;2886;49.722;8.612;2023-05-20T12:31:58;8.17;;;5.70;;
5722;SDS011;2886;49.722;8.612;2023-05-20T12:34:24;9.10;;;5.03;;
5722;SDS011;2886;49.722;8.612;2023-05-20T12:36:50;8.07;;;5.20;;
5722;SDS011;2886;49.722;8.612;2023-05-20T12:39:17;8.27;;;5.73;;
5722;SDS011;2886;49.722;8.612;2023-05-20T12:41:43;11.40;;;5.70;;
5722;SDS011;2886;49.722;8.612;2023-05-20T12:44:09;6.40;;;4.83;;
5722;SDS011;2886;49.722;8.612;2023-05-20T12:46:35;6.60;;;5.20;;
5722;SDS011;2886;49.722;8.612;2023-05-20T12:49:01;7.03;;;5.17;;
5722;SDS011;2886;49.722;8.612;2023-05-20T12:51:27;6.73;;;5.30;;
5722;SDS011;2886;49.722;8.612;2023-05-20T12:53:53;7.97;;;5.80;;
5722;SDS011;2886;49.722;8.612;2023-05-20T12:56:19;8.03;;;5.27;;
5722;SDS011;2886;49.722;8.612;2023-05-20T12:58:45;7.20;;;5.67;;
5722;SDS011;2886;49.722;8.612;2023-05-20T13:01:10;8.70;;;5.40;;
5722;SDS011;2886;49.722;8.612;2023-05-20T13:03:36;6.73;;;5.67;;
5722;SDS011;2886;49.722;8.612;2023-05-20T13:06:02;6.07;;;5.37;;
5722;SDS011;2886;49.722;8.612;2023-05-20T13:08:28;6.87;;;5.70;;
5722;SDS011;2886;49.722;8.612;2023-05-20T13:10:54;9.83;;;5.40;;
5722;SDS011;2886;49.722;8.612;2023-05-20T13:13:19;6.90;;;5.20;;
5722;SDS011;2886;49.722;8.612;2023-05-20T13:15:48;7.00;;;5.77;;
5722;SDS011;2886;49.722;8.612;2023-05-20T13:18:14;7.30;;;5.60;;
5722;SDS011;2886;49.722;8.612;2023-05-20T13:20:41;7.23;;;5.70;;
5722;SDS011;2886;49.722;8.612;2023-05-20T13:23:07;8.93;;;5.97;;
5722;SDS011;2886;49.722;8.612;2023-05-20T13:25:33;8.43;;;5.37;;
5722;SDS011;2886;49.722;8.612;2023-05-20T13:27:59;7.23;;;5.77;;
5722;SDS011;2886;49.722;8.612;2023-05-20T13:30:25;8.60;;;5.67;;
5722;SDS011;2886;49.722;8.612;2023-05-20T13:32:53;7.00;;;5.70;;
5722;SDS011;2886;49.722;8.612;2023-05-20T13:35:19;9.20;;;5.80;;
5722;SDS011;2886;49.722;8.612;2023-05-20T13:37:45;6.67;;;5.23;;
5722;SDS011;2886;49.722;8.612;2023-05-20T13:40:11;7.60;;;5.80;;
5722;SDS011;2886;49.722;8.612;2023-05-20T13:42:37;9.93;;;5.67;;
5722;SDS011;2886;49.722;8.612;2023-05-20T13:45:02;10.63;;;5.93;;
5722;SDS011;2886;49.722;8.612;2023-05-20T13:47:29;10.70;;;5.60;;
5722;SDS011;2886;49.722;8.612;2023-05-20T13:49:54;7.90;;;5.50;;
5722;SDS011;2886;49.722;8.612;2023-05-20T13:52:20;9.87;;;5.80;;
5722;SDS011;2886;49.722;8.612;2023-05-20T13:54:45;6.53;;;5.50;;
5722;SDS011;2886;49.722;8.612;2023-05-20T13:57:12;7.33;;;4.83;;
5722;SDS011;2886;49.722;8.612;2023-05-20T13:59:41;12.13;;;6.27;;
5722;SDS011;2886;49.722;8.612;2023-05-20T14:02:06;10.10;;;6.23;;
5722;SDS011;2886;49.722;8.612;2023-05-20T14:04:32;12.20;;;5.90;;
5722;SDS011;2886;49.722;8.612;2023-05-20T14:07:02;9.80;;;6.27;;
5722;SDS011;2886;49.722;8.612;2023-05-20T14:09:28;7.97;;;6.03;;
5722;SDS011;2886;49.722;8.612;2023-05-20T14:11:54;9.13;;;6.03;;
5722;SDS011;2886;49.722;8.612;2023-05-20T14:14:20;8.33;;;6.00;;
5722;SDS011;2886;49.722;8.612;2023-05-20T14:16:46;7.70;;;6.27;;
5722;SDS011;2886;49.722;8.612;2023-05-20T14:19:11;7.70;;;6.00;;
5722;SDS011;2886;49.722;8.612;2023-05-20T14:21:37;6.73;;;5.80;;
5722;SDS011;2886;49.722;8.612;2023-05-20T14:24:03;8.00;;;6.30;;
5722;SDS011;2886;49.722;8.612;2023-05-20T14:26:28;8.50;;;6.30;;
5722;SDS011;2886;49.722;8.612;2023-05-20T14:28:54;7.40;;;5.60;;
5722;SDS011;2886;49.722;8.612;2023-05-20T14:31:20;9.93;;;6.13;;
5722;SDS011;2886;49.722;8.612;2023-05-20T14:33:45;7.70;;;6.43;;
5722;SDS011;2886;49.722;8.612;2023-05-20T14:36:11;8.73;;;5.90;;
5722;SDS011;2886;49.722;8.612;2023-05-20T14:38:36;9.40;;;6.60;;
5722;SDS011;2886;49.722;8.612;2023-05-20T14:41:02;7.70;;;6.37;;
5722;SDS011;2886;49.722;8.612;2023-05-20T14:43:28;9.33;;;6.57;;
5722;SDS011;2886;49.722;8.612;2023-05-20T14:45:56;8.40;;;6.57;;
5722;SDS011;2886;49.722;8.612;2023-05-20T14:48:21;9.87;;;6.27;;
5722;SDS011;2886;49.722;8.612;2023-05-20T14:50:47;9.40;;;6.30;;
5722;SDS011;2886;49.722;8.612;2023-05-20T14:53:13;10.10;;;6.43;;
5722;SDS011;2886;49.722;8.612;2023-05-20T14:55:38;6.67;;;5.97;;
5722;SDS011;2886;49.722;8.612;2023-05-20T14:58:04;8.03;;;6.53;;
5722;SDS011;2886;49.722;8.612;2023-05-20T15:00:30;7.93;;;6.40;;
5722;SDS011;2886;49.722;8.612;2023-05-20T15:02:56;7.77;;;6.30;;
5722;SDS011;2886;49.722;8.612;2023-05-20T15:05:22;8.27;;;6.33;;
5722;SDS011;2886;49.722;8.612;2023-05-20T15:07:48;7.50;;;6.43;;
5722;SDS011;2886;49.722;8.612;2023-05-20T15:10:14;8.20;;;6.50;;
5722;SDS011;2886;49.722;8.612;2023-05-20T15:12:40;8.27;;;6.53;;
5722;SDS011;2886;49.722;8.612;2023-05-20T15:15:07;9.87;;;6.90;;
5722;SDS011;2886;49.722;8.612;2023-05-20T15:17:33;7.30;;;5.80;;
5722;SDS011;2886;49.722;8.612;2023-05-20T15:19:59;9.40;;;6.47;;